Time;durP1;ratioP1;P1;durP2;ratioP2;P2;SDS_P1;SDS_P2;PMS_P1;PMS_P2;Temp;Humidity;BMP_temperature;BMP_pressure;BME280_temperature;BME280_humidity;BME280_pressure;Samples;Min_cycle;Max_cycle;Signal;HPM_P1;HPM_P2
2021/12/30 00:01:39;;;;;;;3.42;2.22;;;;;;;2.85;100.00;92473.19;5032127;28;20492;-83
2021/12/30 00:04:07;;;;;;;3.65;2.28;;;;;;;2.76;100.00;92469.97;5032206;28;20049;-83
2021/12/30 00:06:39;;;;;;;4.13;2.55;;;;;;;2.67;100.00;92455.84;5032110;28;20095;-83
2021/12/30 00:09:22;;;;;;;3.30;2.15;;;;;;;2.77;100.00;92481.69;5031921;28;20049;-86
2021/12/30 00:11:50;;;;;;;3.50;2.08;;;;;;;2.73;100.00;92479.69;5033612;28;20045;-84
2021/12/30 00:14:18;;;;;;;4.13;2.35;;;;;;;2.75;100.00;92488.72;5032010;28;20052;-84
2021/12/30 00:16:45;;;;;;;3.22;1.90;;;;;;;2.58;100.00;92465.31;5031763;28;20397;-84
2021/12/30 00:19:14;;;;;;;3.20;2.08;;;;;;;2.72;100.00;92483.97;5031948;28;20068;-84
2021/12/30 00:21:54;;;;;;;;;;;;;;;;;;;;;
2021/12/30 00:24:21;;;;;;;3.88;1.92;;;;;;;2.73;100.00;92492.38;5031204;28;20045;-85
2021/12/30 00:26:48;;;;;;;3.10;1.48;;;;;;;2.84;100.00;92488.56;5031545;28;20060;-84
2021/12/30 00:29:15;;;;;;;5.93;3.28;;;;;;;2.84;100.00;92494.44;5031584;28;20046;-85
2021/12/30 00:31:43;;;;;;;2.65;1.75;;;;;;;2.72;100.00;92489.06;5031300;28;20416;-84
2021/12/30 00:34:10;;;;;;;2.50;1.83;;;;;;;2.78;100.00;92503.53;5031709;28;20045;-84
2021/12/30 00:36:37;;;;;;;3.08;1.80;;;;;;;2.81;100.00;92502.41;5031442;28;20053;-84
2021/12/30 00:39:04;;;;;;;2.72;1.70;;;;;;;2.76;100.00;92509.75;5031385;28;20046;-84
2021/12/30 00:41:31;;;;;;;2.22;1.15;;;;;;;2.62;100.00;92496.16;5031594;28;20060;-84
2021/12/30 00:43:58;;;;;;;2.47;1.60;;;;;;;2.84;100.00;92514.75;5031313;28;20045;-84
2021/12/30 00:46:25;;;;;;;2.42;1.52;;;;;;;2.77;100.00;92514.66;5031313;28;20095;-84
2021/12/30 00:48:53;;;;;;;1.73;0.93;;;;;;;2.75;100.00;92515.81;5031348;28;20057;-84
2021/12/30 00:51:20;;;;;;;1.92;1.30;;;;;;;2.77;100.00;92513.88;5031103;28;20466;-84
2021/12/30 00:53:47;;;;;;;3.85;1.65;;;;;;;2.76;100.00;92522.44;5031084;28;20045;-84
2021/12/30 00:56:14;;;;;;;2.30;1.48;;;;;;;2.78;100.00;92518.00;5031140;28;20045;-84
2021/12/30 00:58:41;;;;;;;2.20;1.23;;;;;;;2.75;100.00;92520.88;5031192;28;20045;-84
2021/12/30 01:01:08;;;;;;;2.33;1.30;;;;;;;2.75;100.00;92524.22;5031211;28;20041;-84
2021/12/30 01:03:35;;;;;;;2.30;1.38;;;;;;;2.82;100.00;92518.41;5030903;28;20050;-85
2021/12/30 01:06:04;;;;;;;3.00;1.80;;;;;;;2.60;100.00;92493.78;5031160;28;20049;-85
2021/12/30 01:08:31;;;;;;;2.63;1.65;;;;;;;2.88;100.00;92526.06;5031171;28;20046;-85
2021/12/30 01:10:58;;;;;;;2.42;1.50;;;;;;;2.83;100.00;92522.53;5030997;28;20053;-84
2021/12/30 01:13:27;;;;;;;4.13;2.03;;;;;;;2.80;100.00;92533.81;5031218;28;20049;-85
2021/12/30 01:16:00;;;;;;;2.00;1.38;;;;;;;2.80;100.00;92528.75;5030853;28;20045;-84
2021/12/30 01:18:40;;;;;;;2.55;1.48;;;;;;;2.78;100.00;92531.44;5030559;28;20054;-84
2021/12/30 01:21:11;;;;;;;3.15;1.90;;;;;;;2.80;100.00;92537.16;5030865;28;20053;-84
2021/12/30 01:23:41;;;;;;;2.28;1.60;;;;;;;2.73;100.00;92531.19;5030892;28;20045;-84
2021/12/30 01:26:08;;;;;;;2.20;1.13;;;;;;;2.73;100.00;92535.50;5030718;28;20045;-84
2021/12/30 01:28:38;;;;;;;2.08;1.20;;;;;;;2.81;100.00;92537.91;5030812;28;20080;-84
2021/12/30 01:31:05;;;;;;;2.67;1.50;;;;;;;2.86;100.00;92533.09;5030469;28;20061;-84
2021/12/30 01:33:32;;;;;;;3.55;1.60;;;;;;;2.91;100.00;92540.16;5030630;28;20516;-84
2021/12/30 01:35:59;;;;;;;2.38;1.48;;;;;;;2.83;100.00;92533.47;5030811;28;20050;-83
2021/12/30 01:38:27;;;;;;;2.55;1.48;;;;;;;2.66;100.00;92531.13;5030617;28;20049;-84
2021/12/30 01:40:59;;;;;;;2.60;1.40;;;;;;;2.79;100.00;92539.84;5030637;28;20049;-84
2021/12/30 01:43:26;;;;;;;2.55;1.30;;;;;;;2.72;100.00;92532.16;5030556;28;20057;-84
2021/12/30 01:45:53;;;;;;;2.58;1.58;;;;;;;2.83;100.00;92533.47;5030819;28;20053;-84
2021/12/30 01:48:21;;;;;;;2.50;1.45;;;;;;;2.88;100.00;92540.53;5030683;28;20041;-84
2021/12/30 01:50:48;;;;;;;3.00;1.70;;;;;;;2.89;100.00;92540.34;5030636;28;20048;-83
2021/12/30 01:53:15;;;;;;;2.42;1.38;;;;;;;2.77;100.00;92534.94;5030567;28;20053;-83
2021/12/30 01:55:44;;;;;;;2.17;1.17;;;;;;;2.77;100.00;92532.41;5030375;28;20488;-84
2021/12/30 01:58:12;;;;;;;2.30;1.15;;;;;;;2.73;100.00;92541.34;5030369;28;20064;-83
2021/12/30 02:00:40;;;;;;;1.98;1.30;;;;;;;2.75;100.00;92539.44;5030654;28;20139;-83
2021/12/30 02:03:11;;;;;;;2.63;1.50;;;;;;;2.80;100.00;92543.97;5030498;28;20393;-86
2021/12/30 02:05:43;;;;;;;3.08;1.35;;;;;;;2.79;100.00;92537.31;5032228;28;20076;-86
2021/12/30 02:08:13;;;;;;;3.50;1.58;;;;;;;2.85;100.00;92538.34;5034185;28;20524;-85
2021/12/30 02:10:41;;;;;;;2.05;1.20;;;;;;;2.88;100.00;92543.06;5034105;28;20050;-85
2021/12/30 02:13:10;;;;;;;2.50;1.15;;;;;;;2.82;100.00;92538.72;5034178;28;20053;-84
2021/12/30 02:15:37;;;;;;;1.75;1.20;;;;;;;2.69;100.00;92522.38;5034036;28;20042;-83
2021/12/30 02:18:04;;;;;;;2.53;1.48;;;;;;;2.79;100.00;92542.38;5033992;28;20053;-84
2021/12/30 02:20:48;;;;;;;2.35;1.65;;;;;;;2.74;100.00;92542.13;5034080;28;20467;-83
2021/12/30 02:23:19;;;;;;;2.30;1.60;;;;;;;2.71;100.00;92537.41;5034226;28;20064;-84
2021/12/30 02:25:46;;;;;;;2.67;1.70;;;;;;;2.76;100.00;92545.28;5033942;28;20499;-84
2021/12/30 02:28:16;;;;;;;2.45;1.58;;;;;;;2.77;100.00;92550.16;5034092;28;20061;-84
2021/12/30 02:30:44;;;;;;;2.58;1.90;;;;;;;2.80;100.00;92549.03;5033877;28;20046;-84
2021/12/30 02:33:12;;;;;;;3.40;1.70;;;;;;;2.78;100.00;92549.19;5033755;28;20069;-84
2021/12/30 02:35:39;;;;;;;3.17;1.63;;;;;;;2.79;100.00;92550.00;5033781;28;20048;-84
2021/12/30 02:38:07;;;;;;;2.33;1.50;;;;;;;2.75;100.00;92548.78;5034041;28;20893;-84
2021/12/30 02:40:37;;;;;;;2.50;1.60;;;;;;;2.79;100.00;92550.00;5033791;28;20060;-84
2021/12/30 02:43:07;;;;;;;2.72;1.70;;;;;;;2.83;100.00;92550.44;5033570;28;20049;-84
2021/12/30 02:45:34;;;;;;;2.10;1.38;;;;;;;2.89;100.00;92555.56;5033607;28;20548;-84
2021/12/30 02:48:01;;;;;;;3.05;2.00;;;;;;;2.96;100.00;92552.31;5033337;28;20625;-84
2021/12/30 02:50:29;;;;;;;2.13;1.52;;;;;;;2.84;100.00;92547.72;5033732;28;20053;-84
2021/12/30 02:52:56;;;;;;;2.97;1.65;;;;;;;2.97;100.00;92557.22;5033501;28;20152;-84
2021/12/30 02:55:24;;;;;;;3.60;2.03;;;;;;;3.04;100.00;92565.69;5033547;28;20049;-84
2021/12/30 02:57:51;;;;;;;2.30;1.40;;;;;;;2.99;100.00;92567.97;5033465;28;20049;-84
2021/12/30 03:00:18;;;;;;;2.50;1.30;;;;;;;2.86;100.00;92568.59;5033269;28;20045;-84
2021/12/30 03:02:44;;;;;;;2.70;1.30;;;;;;;2.92;100.00;92569.66;5033282;28;20049;-84
2021/12/30 03:05:18;;;;;;;2.10;1.27;;;;;;;2.89;100.00;92568.25;5033571;28;20046;-84
2021/12/30 03:07:45;;;;;;;2.22;1.30;;;;;;;2.83;100.00;92563.91;5033279;28;20055;-84
2021/12/30 03:10:15;;;;;;;2.00;1.15;;;;;;;2.90;100.00;92574.91;5033338;28;20072;-84
2021/12/30 03:12:44;;;;;;;1.90;1.17;;;;;;;2.77;100.00;92578.06;5032981;28;20058;-84
2021/12/30 03:15:13;;;;;;;2.97;1.55;;;;;;;2.59;100.00;92544.69;5033070;28;20492;-84
2021/12/30 03:17:40;;;;;;;2.40;1.30;;;;;;;2.68;100.00;92553.75;5031943;28;20104;-84
2021/12/30 03:20:09;;;;;;;2.17;1.20;;;;;;;2.80;100.00;92580.25;5033029;28;20045;-85
2021/12/30 03:22:37;;;;;;;2.15;1.10;;;;;;;2.85;100.00;92579.72;5032895;28;20050;-83
2021/12/30 03:25:06;;;;;;;2.78;1.10;;;;;;;2.79;100.00;92586.28;5033005;28;20132;-84
2021/12/30 03:27:33;;;;;;;2.58;1.60;;;;;;;2.88;100.00;92586.19;5032761;28;20053;-84
2021/12/30 03:30:04;;;;;;;2.10;1.20;;;;;;;2.86;100.00;92588.13;5032964;28;20099;-84
2021/12/30 03:32:31;;;;;;;2.15;1.23;;;;;;;2.52;100.00;92547.94;5033157;28;20056;-84
2021/12/30 03:34:57;;;;;;;2.70;1.58;;;;;;;2.81;100.00;92593.72;5032872;28;20057;-84
2021/12/30 03:37:24;;;;;;;2.95;1.60;;;;;;;2.83;100.00;92593.53;5032666;28;20087;-84
2021/12/30 03:39:51;;;;;;;2.97;1.52;;;;;;;2.82;100.00;92595.28;5032535;28;20053;-84
2021/12/30 03:42:18;;;;;;;2.85;1.95;;;;;;;2.51;100.00;92565.88;5032767;28;20413;-85
2021/12/30 03:44:46;;;;;;;3.13;2.17;;;;;;;2.76;100.00;92599.31;5032590;28;20054;-84
2021/12/30 03:47:17;;;;;;;2.33;1.50;;;;;;;2.72;100.00;92604.94;5032285;28;20060;-84
2021/12/30 03:49:45;;;;;;;2.30;1.60;;;;;;;2.61;100.00;92580.78;5032616;28;20059;-84
2021/12/30 03:52:15;;;;;;;2.65;1.40;;;;;;;2.64;100.00;92591.38;5032328;28;20053;-84
2021/12/30 03:54:43;;;;;;;1.98;1.17;;;;;;;2.51;100.00;92586.91;5032200;28;20045;-84
2021/12/30 03:57:10;;;;;;;2.53;1.40;;;;;;;2.57;100.00;92602.38;5032476;28;20381;-84
2021/12/30 03:59:37;;;;;;;3.35;1.70;;;;;;;2.58;100.00;92609.81;5032333;28;20053;-85
2021/12/30 04:02:04;;;;;;;3.17;1.80;;;;;;;2.54;100.00;92608.59;5032208;28;20046;-84
2021/12/30 04:04:32;;;;;;;2.47;1.42;;;;;;;2.50;100.00;92615.78;5032085;28;20064;-84
2021/12/30 04:06:59;;;;;;;3.45;1.67;;;;;;;2.47;100.00;92615.34;5032034;28;20520;-84
2021/12/30 04:09:26;;;;;;;3.53;2.22;;;;;;;2.52;100.00;92626.53;5032040;28;20060;-84
2021/12/30 04:11:53;;;;;;;2.85;1.77;;;;;;;2.49;100.00;92626.88;5031941;28;20053;-85
2021/12/30 04:14:20;;;;;;;2.95;1.90;;;;;;;2.52;100.00;92621.47;5032196;28;20049;-84
2021/12/30 04:16:47;;;;;;;2.65;1.73;;;;;;;2.60;100.00;92627.41;5031806;28;20423;-84
2021/12/30 04:19:14;;;;;;;3.13;1.75;;;;;;;2.57;100.00;92637.88;5031861;28;20088;-84
2021/12/30 04:21:42;;;;;;;3.45;1.83;;;;;;;2.52;100.00;92644.28;5031704;28;20056;-85
2021/12/30 04:24:10;;;;;;;3.05;1.85;;;;;;;2.47;100.00;92651.63;5031992;28;20050;-84
2021/12/30 04:26:37;;;;;;;2.60;1.85;;;;;;;2.40;100.00;92659.13;5031854;28;20104;-85
2021/12/30 04:29:05;;;;;;;2.50;1.70;;;;;;;2.44;100.00;92669.69;5031488;28;20050;-84
2021/12/30 04:31:32;;;;;;;2.53;1.70;;;;;;;2.38;100.00;92668.66;5031539;28;20603;-84
2021/12/30 04:33:59;;;;;;;3.05;2.03;;;;;;;2.41;100.00;92672.59;5031426;28;20499;-85
2021/12/30 04:36:26;;;;;;;2.67;1.90;;;;;;;2.25;100.00;92651.50;5031523;28;20050;-84
2021/12/30 04:38:55;;;;;;;6.10;3.40;;;;;;;2.37;100.00;92673.91;5031642;28;20049;-84
2021/12/30 04:41:21;;;;;;;3.30;2.38;;;;;;;2.29;100.00;92676.50;5031535;28;20049;-84
2021/12/30 04:43:48;;;;;;;3.38;2.00;;;;;;;2.41;100.00;92682.75;5031517;28;20543;-84
2021/12/30 04:46:15;;;;;;;2.45;1.63;;;;;;;2.39;100.00;92680.38;5031244;28;20049;-84
2021/12/30 04:48:42;;;;;;;2.97;2.00;;;;;;;2.34;100.00;92685.16;5031313;28;20427;-84
2021/12/30 04:51:09;;;;;;;2.10;1.30;;;;;;;2.32;100.00;92687.06;5031481;28;20049;-83
2021/12/30 04:53:35;;;;;;;2.83;1.80;;;;;;;2.33;100.00;92695.47;5031125;28;20103;-84
2021/12/30 04:56:04;;;;;;;2.90;2.10;;;;;;;2.23;100.00;92683.03;5031381;28;20045;-82
2021/12/30 04:58:31;;;;;;;2.88;1.85;;;;;;;2.24;100.00;92694.75;5031240;28;20488;-84
2021/12/30 05:00:58;;;;;;;3.15;1.70;;;;;;;2.27;100.00;92699.50;5031106;28;20095;-84
2021/12/30 05:03:25;;;;;;;3.72;1.95;;;;;;;2.33;100.00;92703.88;5030962;28;20468;-84
2021/12/30 05:05:54;;;;;;;2.50;1.77;;;;;;;2.33;100.00;92710.69;5031153;28;20049;-84
2021/12/30 05:08:23;;;;;;;2.50;1.38;;;;;;;2.31;100.00;92697.41;5031272;28;20125;-84
2021/12/30 05:10:51;;;;;;;2.38;1.60;;;;;;;2.33;100.00;92706.41;5030960;28;20053;-85
2021/12/30 05:13:20;;;;;;;2.30;1.50;;;;;;;2.31;100.00;92717.69;5030981;28;20061;-85
2021/12/30 05:15:47;;;;;;;2.42;1.65;;;;;;;2.33;100.00;92708.13;5030701;28;20053;-84
2021/12/30 05:18:16;;;;;;;2.75;1.85;;;;;;;2.35;100.00;92712.09;5031186;28;20487;-84
2021/12/30 05:20:43;;;;;;;3.70;2.20;;;;;;;2.42;100.00;92716.47;5031135;28;21264;-84
2021/12/30 05:23:10;;;;;;;3.55;2.40;;;;;;;2.27;100.00;92702.78;5030810;28;20050;-84
2021/12/30 05:25:37;;;;;;;3.13;2.25;;;;;;;2.33;100.00;92706.41;5030889;28;20064;-84
2021/12/30 05:28:05;;;;;;;3.75;1.95;;;;;;;2.43;100.00;92726.44;5030883;28;20416;-84
2021/12/30 05:30:33;;;;;;;2.13;1.55;;;;;;;2.37;100.00;92737.25;5030785;28;20400;-84
2021/12/30 05:33:00;;;;;;;3.28;2.40;;;;;;;2.24;100.00;92723.44;5030586;28;20064;-84
2021/12/30 05:35:27;;;;;;;3.30;2.17;;;;;;;2.38;100.00;92739.63;5030815;28;20046;-84
2021/12/30 05:37:55;;;;;;;2.50;1.67;;;;;;;2.38;100.00;92743.91;5030852;28;20119;-84
2021/12/30 05:40:23;;;;;;;3.05;2.10;;;;;;;2.43;100.00;92738.31;5032090;28;20053;-84
2021/12/30 05:42:50;;;;;;;5.03;2.92;;;;;;;2.49;100.00;92740.16;5034720;28;20076;-84
2021/12/30 05:45:18;;;;;;;7.85;6.00;;;;;;;2.40;100.00;92732.63;5034659;28;20050;-84
2021/12/30 05:47:47;;;;;;;3.72;2.80;;;;;;;2.39;100.00;92732.81;5034835;28;20104;-84
2021/12/30 05:50:16;;;;;;;3.85;2.38;;;;;;;2.31;100.00;92748.84;5034553;28;20049;-84
2021/12/30 05:52:43;;;;;;;3.30;2.20;;;;;;;2.32;100.00;92745.34;5034540;28;20061;-84
2021/12/30 05:55:11;;;;;;;2.08;1.30;;;;;;;2.16;100.00;92733.59;5034531;28;20096;-84
2021/12/30 05:57:38;;;;;;;3.42;2.85;;;;;;;2.37;100.00;92755.00;5034386;28;20046;-84
2021/12/30 06:00:08;;;;;;;3.50;2.20;;;;;;;2.19;100.00;92745.16;5034711;28;20107;-83
2021/12/30 06:02:35;;;;;;;3.70;2.85;;;;;;;2.26;100.00;92767.13;5034557;28;20046;-84
2021/12/30 06:05:04;;;;;;;4.00;3.33;;;;;;;2.30;100.00;92772.63;5034545;28;20100;-84
2021/12/30 06:07:31;;;;;;;4.13;2.78;;;;;;;2.24;100.00;92771.56;5034373;28;20088;-84
2021/12/30 06:09:58;;;;;;;3.15;2.22;;;;;;;2.31;100.00;92775.97;5034268;28;20049;-83
2021/12/30 06:12:25;;;;;;;2.92;2.10;;;;;;;2.17;100.00;92760.53;5034395;28;20470;-84
2021/12/30 06:14:52;;;;;;;4.38;2.92;;;;;;;2.07;100.00;92765.81;5034353;28;20046;-83
2021/12/30 06:17:18;;;;;;;5.25;3.53;;;;;;;2.22;100.00;92785.38;5034110;28;20053;-84
2021/12/30 06:19:45;;;;;;;7.60;5.32;;;;;;;2.13;100.00;92790.47;5034363;28;20053;-84
2021/12/30 06:22:14;;;;;;;111.82;49.53;;;;;;;2.09;100.00;92789.22;5034054;28;20049;-83
2021/12/30 06:24:42;;;;;;;116.72;45.97;;;;;;;2.16;100.00;92804.56;5034010;28;20424;-83
2021/12/30 06:27:09;;;;;;;63.83;27.63;;;;;;;2.20;100.00;92812.63;5033865;28;20049;-84
2021/12/30 06:29:37;;;;;;;34.25;15.82;;;;;;;2.13;100.00;92815.03;5033852;28;20488;-84
2021/12/30 06:32:06;;;;;;;12.18;6.28;;;;;;;2.20;100.00;92821.00;5033911;28;20096;-84
2021/12/30 06:34:34;;;;;;;25.77;13.80;;;;;;;2.23;100.00;92822.44;5033658;28;20496;-84
2021/12/30 06:37:01;;;;;;;11.60;7.25;;;;;;;2.20;100.00;92827.81;5033743;28;20046;-84
2021/12/30 06:39:29;;;;;;;17.33;9.90;;;;;;;2.20;100.00;92828.63;5033809;28;20053;-84
2021/12/30 06:41:56;;;;;;;8.15;5.28;;;;;;;2.16;100.00;92837.50;5033655;28;20125;-85
2021/12/30 06:44:24;;;;;;;5.30;3.40;;;;;;;2.07;100.00;92849.44;5033429;28;20057;-83
2021/12/30 06:46:56;;;;;;;5.55;3.78;;;;;;;2.08;100.00;92851.00;5033527;28;20496;-83
2021/12/30 06:49:23;;;;;;;8.30;6.25;;;;;;;1.99;100.00;92849.47;5033389;28;20042;-85
2021/12/30 06:51:50;;;;;;;6.10;4.05;;;;;;;2.06;100.00;92850.38;5030160;28;20519;-85
2021/12/30 06:54:17;;;;;;;13.52;9.82;;;;;;;2.12;100.00;92862.38;5033355;28;20045;-86
2021/12/30 06:56:46;;;;;;;12.68;8.20;;;;;;;2.10;100.00;92868.56;5033457;28;20053;-85
2021/12/30 06:59:14;;;;;;;27.35;13.02;;;;;;;2.20;100.00;92879.28;5033472;28;20052;-85
2021/12/30 07:01:41;;;;;;;7.65;5.38;;;;;;;2.17;100.00;92882.16;5033371;28;20049;-86
2021/12/30 07:04:08;;;;;;;23.88;13.85;;;;;;;2.27;100.00;92889.56;5033145;28;20052;-86
2021/12/30 07:06:35;;;;;;;21.10;11.25;;;;;;;2.30;100.00;92884.16;5033210;28;20522;-85
2021/12/30 07:09:02;;;;;;;17.30;9.07;;;;;;;2.34;100.00;92893.00;5033401;28;20060;-85
2021/12/30 07:11:29;;;;;;;29.05;17.60;;;;;;;2.33;100.00;92895.69;5033220;28;20042;-85
2021/12/30 07:13:57;;;;;;;22.02;14.40;;;;;;;2.27;100.00;92907.31;5033047;28;20053;-85
2021/12/30 07:16:24;;;;;;;27.30;16.15;;;;;;;2.24;100.00;92915.22;5032872;28;20053;-85
2021/12/30 07:18:50;;;;;;;83.90;45.78;;;;;;;2.14;100.00;92911.16;5032774;28;20045;-85
2021/12/30 07:21:17;;;;;;;21.02;13.80;;;;;;;2.24;100.00;92910.97;5033270;28;20087;-85
2021/12/30 07:23:44;;;;;;;11.18;7.15;;;;;;;2.19;100.00;92925.88;5032973;28;20066;-85
2021/12/30 07:26:11;;;;;;;7.13;5.13;;;;;;;2.14;100.00;92925.56;5033050;28;20389;-85
2021/12/30 07:28:38;;;;;;;7.75;5.30;;;;;;;2.18;100.00;92929.34;5032788;28;20057;-85
2021/12/30 07:31:07;;;;;;;27.65;18.80;;;;;;;2.11;100.00;92934.28;5032736;28;20041;-85
2021/12/30 07:33:34;;;;;;;16.50;10.93;;;;;;;2.21;100.00;92926.47;5032602;28;20060;-85
2021/12/30 07:36:01;;;;;;;16.98;11.32;;;;;;;2.20;100.00;92935.06;5032604;28;20049;-85
2021/12/30 07:38:28;;;;;;;11.52;8.50;;;;;;;2.18;100.00;92931.88;5032685;28;20073;-85
2021/12/30 07:40:55;;;;;;;27.85;16.85;;;;;;;2.04;100.00;92925.75;5032518;28;20439;-85
2021/12/30 07:43:21;;;;;;;22.63;17.02;;;;;;;2.16;100.00;92930.47;5032434;28;20069;-85
2021/12/30 07:45:51;;;;;;;10.60;8.93;;;;;;;2.16;100.00;92950.75;5032264;28;20650;-85
2021/12/30 07:48:19;;;;;;;11.43;9.65;;;;;;;2.13;100.00;92955.19;5032430;28;20053;-86
2021/12/30 07:50:45;;;;;;;69.43;46.60;;;;;;;2.15;100.00;92957.56;5032332;28;20115;-85
2021/12/30 07:53:12;;;;;;;18.17;15.80;;;;;;;1.99;100.00;92933.84;5032361;28;20045;-85
2021/12/30 07:55:39;;;;;;;25.33;16.20;;;;;;;2.08;100.00;92967.56;5032336;28;20095;-85
2021/12/30 07:58:06;;;;;;;24.77;15.82;;;;;;;2.03;100.00;92969.78;5032313;28;20055;-84
2021/12/30 08:00:33;;;;;;;25.75;17.20;;;;;;;2.10;100.00;92968.19;5032403;28;20056;-85
2021/12/30 08:03:00;;;;;;;8.60;7.70;;;;;;;1.99;100.00;92978.69;5031532;28;20111;-85
2021/12/30 08:05:28;;;;;;;10.77;8.05;;;;;;;1.81;100.00;92951.78;5032283;28;20107;-84
2021/12/30 08:07:57;;;;;;;7.20;5.70;;;;;;;1.83;100.00;92966.81;5032295;28;20132;-85
2021/12/30 08:10:24;;;;;;;7.65;6.38;;;;;;;1.85;100.00;92960.66;5032079;28;20045;-84
2021/12/30 08:12:52;;;;;;;12.52;9.07;;;;;;;2.05;100.00;92987.34;5031944;28;20053;-85
2021/12/30 08:15:20;;;;;;;8.68;7.45;;;;;;;1.95;100.00;92982.47;5031933;28;20148;-84
2021/12/30 08:17:49;;;;;;;8.27;6.65;;;;;;;1.85;100.00;92962.41;5031934;28;20115;-83
2021/12/30 08:23:05;;;;;;;10.70;8.00;;;;;;;1.94;100.00;92996.88;5029879;28;20053;-85
2021/12/30 08:25:32;;;;;;;10.95;8.35;;;;;;;1.85;100.00;92987.75;5031581;28;20256;-85
2021/12/30 08:27:59;;;;;;;8.65;6.95;;;;;;;1.90;100.00;93003.22;5032061;28;20061;-85
2021/12/30 08:30:27;;;;;;;12.48;10.05;;;;;;;1.99;100.00;93009.84;5031652;28;20110;-85
2021/12/30 08:32:54;;;;;;;14.05;10.40;;;;;;;2.05;100.00;93020.28;5031640;28;20049;-85
2021/12/30 08:35:22;;;;;;;6.65;5.40;;;;;;;1.98;100.00;93026.00;5031645;28;20104;-85
2021/12/30 08:37:49;;;;;;;12.65;8.95;;;;;;;2.00;100.00;93036.00;5028662;28;20501;-85
2021/12/30 08:40:19;;;;;;;35.45;16.35;;;;;;;2.09;100.00;93032.47;5031659;28;20475;-85
2021/12/30 08:42:47;;;;;;;7.72;5.38;;;;;;;2.01;100.00;93029.97;5031342;28;20049;-85
2021/12/30 08:45:14;;;;;;;10.73;8.38;;;;;;;1.85;100.00;93033.31;5031321;28;20072;-85
2021/12/30 08:47:43;;;;;;;10.95;8.10;;;;;;;1.81;100.00;93030.28;5031347;28;20053;-85
2021/12/30 08:50:13;;;;;;;10.85;8.80;;;;;;;1.87;100.00;93047.38;5031260;28;20049;-86
2021/12/30 08:52:41;;;;;;;14.90;11.10;;;;;;;1.84;100.00;93032.53;5031094;28;20060;-85
2021/12/30 08:55:09;;;;;;;14.95;12.07;;;;;;;1.90;100.00;93048.81;5031654;28;20057;-86
2021/12/30 08:57:40;;;;;;;13.32;11.68;;;;;;;1.92;100.00;93044.38;5031293;28;20049;-86
2021/12/30 09:00:11;;;;;;;23.48;16.83;;;;;;;1.96;100.00;93052.44;5031647;28;20085;-85
2021/12/30 09:02:39;;;;;;;13.05;9.98;;;;;;;1.87;100.00;93070.19;5031139;28;20115;-85
2021/12/30 09:05:07;;;;;;;18.25;12.68;;;;;;;1.93;100.00;93063.69;5030788;28;20115;-85
2021/12/30 09:07:33;;;;;;;17.33;12.02;;;;;;;1.95;100.00;93066.06;5031197;28;20046;-86
2021/12/30 09:10:00;;;;;;;16.63;11.70;;;;;;;1.93;100.00;93070.50;5031001;28;20096;-85
2021/12/30 09:12:27;;;;;;;10.07;7.88;;;;;;;1.84;100.00;93062.13;5031023;28;20041;-85
2021/12/30 09:14:55;;;;;;;118.47;42.33;;;;;;;1.87;100.00;93072.72;5030886;28;20614;-85
2021/12/30 09:17:22;;;;;;;16.25;10.25;;;;;;;1.82;100.00;93071.63;5030981;28;20049;-86
2021/12/30 09:19:49;;;;;;;18.80;11.45;;;;;;;1.81;100.00;93067.50;5030790;28;20061;-83
2021/12/30 09:22:15;;;;;;;48.80;21.10;;;;;;;1.79;100.00;93056.72;5030923;28;20053;-83
2021/12/30 09:24:42;;;;;;;9.38;7.30;;;;;;;1.76;100.00;93065.44;5030516;28;20050;-82
2021/12/30 09:27:10;;;;;;;9.85;8.85;;;;;;;1.71;100.00;93055.03;5030818;28;20045;-83
2021/12/30 09:29:37;;;;;;;111.68;40.47;;;;;;;1.73;100.00;93060.72;5030677;28;20054;-83
2021/12/30 09:32:06;;;;;;;121.47;44.80;;;;;;;1.75;100.00;93065.63;5030829;28;20049;-83
2021/12/30 09:34:33;;;;;;;12.65;9.23;;;;;;;1.83;100.00;93079.06;5030691;28;20049;-84
2021/12/30 09:37:00;;;;;;;9.73;7.78;;;;;;;1.80;100.00;93081.13;5030854;28;20045;-84
2021/12/30 09:39:26;;;;;;;12.13;9.60;;;;;;;1.85;100.00;93073.84;5030654;28;20527;-84
2021/12/30 09:41:54;;;;;;;23.15;16.85;;;;;;;1.90;100.00;93076.66;5030655;28;20056;-84
2021/12/30 09:44:21;;;;;;;12.73;10.95;;;;;;;1.95;100.00;93076.22;5030561;28;20053;-84
2021/12/30 09:46:48;;;;;;;24.02;17.60;;;;;;;2.00;100.00;93074.00;5030646;28;20148;-85
2021/12/30 09:49:19;;;;;;;12.50;9.98;;;;;;;1.97;100.00;93081.91;5030520;28;20049;-84
2021/12/30 09:51:46;;;;;;;12.30;10.25;;;;;;;1.89;100.00;93059.91;5030538;28;20049;-85
2021/12/30 09:54:13;;;;;;;10.95;8.52;;;;;;;1.96;100.00;93073.53;5030581;28;20049;-84
2021/12/30 09:56:41;;;;;;;20.80;13.75;;;;;;;1.99;100.00;93078.25;5030511;28;20068;-84
2021/12/30 09:59:09;;;;;;;13.02;10.18;;;;;;;2.05;100.00;93088.69;5030878;28;20072;-84
2021/12/30 10:01:37;;;;;;;11.32;9.02;;;;;;;1.89;100.00;93059.91;5030689;28;20041;-84
2021/12/30 10:04:05;;;;;;;61.30;33.28;;;;;;;2.08;100.00;93086.63;5030338;28;20053;-84
2021/12/30 10:06:44;;;;;;;85.65;52.30;;;;;;;2.18;100.00;93094.06;5030463;28;20049;-84
2021/12/30 10:09:13;;;;;;;11.57;8.43;;;;;;;2.08;100.00;93096.00;5030375;28;20052;-84
2021/12/30 10:11:48;;;;;;;14.55;9.23;;;;;;;2.04;100.00;93094.72;5030313;28;20451;-84
2021/12/30 10:14:26;;;;;;;51.90;32.20;;;;;;;2.06;100.00;93097.88;5030153;28;20049;-84
2021/12/30 10:17:14;;;;;;;729.50;322.80;;;;;;;2.14;100.00;93086.00;5030545;28;20144;-84
2021/12/30 10:19:41;;;;;;;203.52;64.57;;;;;;;2.16;100.00;93097.72;5030223;28;20408;-84
2021/12/30 10:22:11;;;;;;;142.38;43.50;;;;;;;2.19;100.00;93092.31;5030128;28;20057;-84
2021/12/30 10:24:39;;;;;;;158.25;47.42;;;;;;;2.34;100.00;93090.72;5030356;28;20050;-84
2021/12/30 10:27:09;;;;;;;255.88;82.00;;;;;;;2.42;100.00;93089.09;5032723;28;20045;-85
2021/12/30 10:29:43;;;;;;;157.88;47.47;;;;;;;2.41;100.00;93090.88;5034074;28;20569;-84
2021/12/30 10:32:15;;;;;;;170.77;50.58;;;;;;;2.39;100.00;93095.28;5033879;28;20108;-84
2021/12/30 10:35:07;;;;;;;171.23;51.92;;;;;;;2.18;100.00;93065.41;5033668;28;20140;-85
2021/12/30 10:37:41;;;;;;;20.90;9.82;;;;;;;2.56;100.00;93098.59;5033722;28;20591;-85
2021/12/30 10:40:25;;;;;;;12.63;7.05;;;;;;;2.39;100.00;93085.97;5034134;28;20060;-86
2021/12/30 10:42:52;;;;;;;32.75;13.40;;;;;;;2.46;100.00;93101.28;5033547;28;20050;-83
2021/12/30 10:45:21;;;;;;;9.55;5.80;;;;;;;2.53;100.00;93104.78;5033595;28;20397;-83
2021/12/30 10:47:52;;;;;;;256.52;77.00;;;;;;;2.45;100.00;93099.72;5033775;28;20045;-84
2021/12/30 10:50:22;;;;;;;25.05;11.40;;;;;;;2.49;100.00;93103.50;5033654;28;20492;-84
2021/12/30 10:52:54;;;;;;;54.05;21.33;;;;;;;2.32;100.00;93084.22;5033580;28;20493;-84
2021/12/30 10:55:23;;;;;;;15.52;7.50;;;;;;;2.31;100.00;93093.56;5033512;28;20057;-85
2021/12/30 10:57:50;;;;;;;32.85;14.05;;;;;;;2.38;100.00;93107.19;5033573;28;20060;-84
2021/12/30 11:00:28;;;;;;;15.20;7.35;;;;;;;2.36;100.00;93108.31;5033710;28;20081;-84
2021/12/30 11:02:55;;;;;;;37.92;15.25;;;;;;;2.51;100.00;93100.81;5033419;28;20049;-84
2021/12/30 11:05:22;;;;;;;53.50;22.77;;;;;;;2.54;100.00;93097.94;5033263;28;20064;-85
2021/12/30 11:07:52;;;;;;;65.78;25.02;;;;;;;2.38;100.00;93073.44;5033103;28;20485;-84
2021/12/30 11:10:31;;;;;;;28.50;12.43;;;;;;;2.60;100.00;93109.97;5033342;28;20148;-84
2021/12/30 11:13:11;;;;;;;16.02;8.65;;;;;;;2.77;100.00;93113.25;5033334;28;20045;-84
2021/12/30 11:15:38;;;;;;;36.80;16.70;;;;;;;2.79;100.00;93120.72;5033117;28;20385;-84
2021/12/30 11:18:07;;;;;;;24.85;12.18;;;;;;;2.90;100.00;93127.97;5032882;28;20060;-85
2021/12/30 11:20:39;;;;;;;17.35;8.45;;;;;;;2.81;100.00;93113.72;5033424;28;20049;-84
2021/12/30 11:23:07;;;;;;;27.17;14.65;;;;;;;2.82;100.00;93135.59;5032737;28;20049;-83
2021/12/30 11:25:35;;;;;;;27.33;15.45;;;;;;;2.90;100.00;93139.84;5032935;28;20492;-84
2021/12/30 11:28:02;;;;;;;55.60;27.52;;;;;;;2.97;100.00;93140.00;5032890;28;20072;-84
2021/12/30 11:30:28;;;;;;;20.23;11.05;;;;;;;3.12;100.00;93143.41;5032823;28;20428;-84
2021/12/30 11:32:55;;;;;;;7.95;5.03;;;;;;;3.30;100.00;93150.81;5032521;28;20049;-84
2021/12/30 11:35:26;;;;;;;7.68;5.25;;;;;;;3.33;100.00;93147.91;5032604;28;20061;-84
2021/12/30 11:37:54;;;;;;;23.73;13.05;;;;;;;3.45;100.00;93155.16;5031843;28;20064;-84